createdAt,value
2024-03-01T00:02:02.521Z,95950.66
2024-03-01T00:04:29.564Z,95952.34
2024-03-01T00:06:56.233Z,95951.59
2024-03-01T00:09:22.887Z,95950.56
2024-03-01T00:11:49.529Z,95943.75
2024-03-01T00:14:16.200Z,95943.16
2024-03-01T00:16:42.814Z,95945.44
2024-03-01T00:19:09.491Z,95943.03
2024-03-01T00:21:36.474Z,95935.50
2024-03-01T00:24:03.300Z,95933.50
2024-03-01T00:26:29.963Z,95938.31
2024-03-01T00:28:56.588Z,95934.56
2024-03-01T00:31:23.285Z,95930.91
2024-03-01T00:33:49.941Z,95924.28
2024-03-01T00:36:16.642Z,95922.72
2024-03-01T00:38:43.259Z,95919.91
2024-03-01T00:41:09.978Z,95920.84
2024-03-01T00:43:37.582Z,95918.78
2024-03-01T00:46:04.676Z,95910.28
2024-03-01T00:48:33.395Z,95904.00
2024-03-01T00:51:00.015Z,95899.53
2024-03-01T00:53:26.715Z,95896.16
2024-03-01T00:55:53.807Z,95899.22
2024-03-01T00:58:20.453Z,95897.09
2024-03-01T01:00:47.154Z,95895.53
2024-03-01T01:03:14.088Z,95886.53
2024-03-01T01:05:40.760Z,95886.13
2024-03-01T01:08:07.528Z,95890.31
2024-03-01T01:10:34.242Z,95892.69
2024-03-01T01:13:00.994Z,95895.97
2024-03-01T01:15:27.619Z,95894.28
2024-03-01T01:17:54.811Z,95896.78
2024-03-01T01:20:21.595Z,95891.66
2024-03-01T01:22:48.257Z,95893.84
2024-03-01T01:25:14.980Z,95895.31
2024-03-01T01:27:41.881Z,95885.03
2024-03-01T01:30:09.281Z,95893.53
2024-03-01T01:32:36.820Z,95888.47
2024-03-01T01:35:03.676Z,95885.47
2024-03-01T01:37:30.410Z,95890.00
2024-03-01T01:39:57.136Z,95887.66
2024-03-01T01:42:23.989Z,95893.75
2024-03-01T01:44:50.642Z,95888.72
2024-03-01T01:47:17.267Z,95891.97
2024-03-01T01:49:44.256Z,95889.22
2024-03-01T01:52:11.175Z,95889.63
2024-03-01T01:54:38.077Z,95889.28
2024-03-01T01:57:05.311Z,95889.00
2024-03-01T01:59:32.152Z,95874.34
2024-03-01T02:01:59.994Z,95878.00
2024-03-01T02:04:26.834Z,95877.13
2024-03-01T02:06:53.534Z,95874.47
2024-03-01T02:09:20.373Z,95877.97
2024-03-01T02:11:47.952Z,95863.78
2024-03-01T02:14:14.728Z,95862.75
2024-03-01T02:16:41.857Z,95855.13
2024-03-01T02:19:15.479Z,95851.25
2024-03-01T02:21:52.099Z,95857.56
2024-03-01T02:24:19.321Z,95848.06
2024-03-01T02:26:45.963Z,95848.16
2024-03-01T02:29:13.479Z,95841.91
2024-03-01T02:31:40.336Z,95838.84
2024-03-01T02:34:07.050Z,95833.84
2024-03-01T02:36:33.732Z,95829.47
2024-03-01T02:39:00.355Z,95835.66
2024-03-01T02:41:26.995Z,95833.81
2024-03-01T02:43:53.642Z,95841.56
2024-03-01T02:46:20.346Z,95831.63
2024-03-01T02:48:46.984Z,95836.34
2024-03-01T02:51:13.650Z,95834.78
2024-03-01T02:53:40.269Z,95819.09
2024-03-01T02:56:07.183Z,95826.31
2024-03-01T02:58:33.823Z,95818.78
2024-03-01T03:01:00.570Z,95814.28
2024-03-01T03:03:27.792Z,95821.28
2024-03-01T03:05:54.401Z,95818.06
2024-03-01T03:08:21.068Z,95824.84
2024-03-01T03:10:47.731Z,95831.31
2024-03-01T03:13:14.689Z,95820.88
2024-03-01T03:15:41.317Z,95817.75
2024-03-01T03:18:07.974Z,95818.16
2024-03-01T03:20:36.609Z,95820.47
2024-03-01T03:23:06.246Z,95817.19
2024-03-01T03:25:33.035Z,95816.47
2024-03-01T03:27:59.761Z,95810.94
2024-03-01T03:30:26.396Z,95824.09
2024-03-01T03:32:53.112Z,95812.31
2024-03-01T03:35:19.915Z,95820.97
2024-03-01T03:37:46.527Z,95819.28
2024-03-01T03:40:16.653Z,95820.97
2024-03-01T03:42:44.231Z,95821.91
2024-03-01T03:45:11.697Z,95822.44
2024-03-01T03:47:38.716Z,95824.97
2024-03-01T03:50:09.542Z,95821.59
2024-03-01T03:52:36.858Z,95814.78
2024-03-01T03:55:08.732Z,95814.13
2024-03-01T03:57:36.016Z,95819.06
2024-03-01T04:00:11.113Z,95821.41
2024-03-01T04:02:38.204Z,95829.66
2024-03-01T04:05:07.491Z,95819.19
2024-03-01T04:07:34.740Z,95822.38
2024-03-01T04:10:01.649Z,95822.84
2024-03-01T04:12:28.528Z,95826.81
2024-03-01T04:14:55.181Z,95829.97
2024-03-01T04:17:22.759Z,95830.50
2024-03-01T04:19:49.414Z,95841.56
2024-03-01T04:22:16.315Z,95834.72
2024-03-01T04:24:44.874Z,95836.75
2024-03-01T04:27:12.993Z,95825.25
2024-03-01T04:29:40.177Z,95823.44
2024-03-01T04:32:08.868Z,95825.94
2024-03-01T04:34:35.601Z,95826.81
2024-03-01T04:37:02.351Z,95841.47
2024-03-01T04:39:29.017Z,95828.72
2024-03-01T04:41:56.640Z,95838.53
2024-03-01T04:44:23.262Z,95832.66
2024-03-01T04:46:49.877Z,95836.34
2024-03-01T04:49:16.518Z,95833.84
2024-03-01T04:51:43.203Z,95838.66
2024-03-01T04:54:10.056Z,95833.59
2024-03-01T04:56:36.871Z,95837.59
2024-03-01T04:59:04.643Z,95838.72
2024-03-01T05:01:31.563Z,95844.31
2024-03-01T05:03:58.250Z,95840.91
2024-03-01T05:06:24.907Z,95844.41
2024-03-01T05:08:51.519Z,95843.09
2024-03-01T05:11:19.406Z,95838.06
2024-03-01T05:13:46.140Z,95841.56
2024-03-01T05:16:12.895Z,95837.41
2024-03-01T05:18:40.803Z,95852.16
2024-03-01T05:21:07.473Z,95853.00
2024-03-01T05:23:35.233Z,95854.06
2024-03-01T05:26:02.135Z,95863.34
2024-03-01T05:28:28.956Z,95877.63
2024-03-01T05:31:00.791Z,95865.13
2024-03-01T05:33:30.955Z,95880.41
2024-03-01T05:35:57.584Z,95879.28
2024-03-01T05:38:24.174Z,95875.19
2024-03-01T05:40:52.485Z,95879.88
2024-03-01T05:43:23.699Z,95874.13
2024-03-01T05:45:51.878Z,95878.75
2024-03-01T05:48:19.335Z,95881.81
2024-03-01T05:50:46.056Z,95883.53
2024-03-01T05:53:17.071Z,95878.31
2024-03-01T05:55:44.726Z,95883.38
2024-03-01T05:58:12.155Z,95881.28
2024-03-01T06:00:44.276Z,95887.13
2024-03-01T06:03:11.191Z,95891.31
2024-03-01T06:05:38.136Z,95894.28
2024-03-01T06:08:05.246Z,95890.69
2024-03-01T06:10:32.001Z,95896.03
2024-03-01T06:12:59.619Z,95902.31
2024-03-01T06:15:27.364Z,95896.94
2024-03-01T06:17:54.206Z,95880.81
2024-03-01T06:20:21.182Z,95884.81
2024-03-01T06:22:47.917Z,95891.91
2024-03-01T06:25:15.041Z,95882.69
2024-03-01T06:27:41.762Z,95890.25
2024-03-01T06:30:08.593Z,95890.13
2024-03-01T06:32:36.169Z,95889.28
2024-03-01T06:35:04.690Z,95890.47
2024-03-01T06:37:31.522Z,95895.09
2024-03-01T06:39:58.163Z,95893.84
2024-03-01T06:42:24.915Z,95891.22
2024-03-01T06:44:51.561Z,95887.22
2024-03-01T06:47:20.402Z,95897.28
2024-03-01T06:49:49.624Z,95902.84
2024-03-01T06:52:16.911Z,95903.25
2024-03-01T06:54:46.537Z,95908.19
2024-03-01T06:57:13.222Z,95897.38
2024-03-01T06:59:40.147Z,95903.69
2024-03-01T07:02:07.507Z,95905.25
2024-03-01T07:04:34.762Z,95909.47
2024-03-01T07:07:01.668Z,95913.31
2024-03-01T07:09:28.327Z,95918.75
2024-03-01T07:11:55.007Z,95914.13
2024-03-01T07:14:21.624Z,95921.38
2024-03-01T07:16:48.287Z,95919.91
2024-03-01T07:19:14.996Z,95919.06
2024-03-01T07:21:42.077Z,95904.13
2024-03-01T07:24:08.767Z,95909.34
2024-03-01T07:26:35.393Z,95909.53
2024-03-01T07:29:03.390Z,95913.94
2024-03-01T07:31:30.105Z,95921.97
2024-03-01T07:33:57.333Z,95916.03
2024-03-01T07:36:24.376Z,95917.19
2024-03-01T07:38:51.046Z,95912.47
2024-03-01T07:41:19.798Z,95923.16
2024-03-01T07:43:47.574Z,95929.09
2024-03-01T07:46:14.555Z,95932.47
2024-03-01T07:48:44.129Z,95926.38
2024-03-01T07:51:11.866Z,95943.44
2024-03-01T07:53:40.353Z,95939.19
2024-03-01T07:56:08.165Z,95931.94
2024-03-01T07:58:35.678Z,95935.88
2024-03-01T08:01:03.033Z,95935.56
2024-03-01T08:03:30.108Z,95934.00
2024-03-01T08:05:56.992Z,95932.22
2024-03-01T08:08:32.577Z,95924.75
2024-03-01T08:10:59.934Z,95925.25
2024-03-01T08:13:26.597Z,95931.59
2024-03-01T08:15:53.356Z,95936.03
2024-03-01T08:18:25.607Z,95932.94
2024-03-01T08:20:59.285Z,95929.00
2024-03-01T08:23:29.582Z,95932.13
2024-03-01T08:25:58.902Z,95932.69
2024-03-01T08:28:30.921Z,95938.31
2024-03-01T08:30:58.143Z,95938.50
2024-03-01T08:33:24.865Z,95943.78
2024-03-01T08:35:51.590Z,95943.72
2024-03-01T08:38:43.394Z,95944.41
2024-03-01T08:41:11.652Z,95945.22
2024-03-01T08:43:42.005Z,95952.28
2024-03-01T08:46:24.659Z,95956.97
2024-03-01T08:48:51.404Z,95954.59
2024-03-01T08:51:18.985Z,95952.91
2024-03-01T08:53:59.761Z,95955.34
2024-03-01T08:56:33.177Z,95959.16
2024-03-01T08:59:01.296Z,95960.03
2024-03-01T09:01:34.032Z,95965.41
2024-03-01T09:04:13.191Z,95968.00
2024-03-01T09:06:40.901Z,95964.84
2024-03-01T09:09:09.788Z,95966.06
2024-03-01T09:11:37.075Z,95969.53
2024-03-01T09:14:04.950Z,95967.84
2024-03-01T09:16:31.644Z,95967.06
2024-03-01T09:18:58.367Z,95968.06
2024-03-01T09:21:31.299Z,95969.41
2024-03-01T09:24:01.263Z,95965.84
2024-03-01T09:26:28.173Z,95968.97
2024-03-01T09:28:59.670Z,95971.59
2024-03-01T09:31:26.435Z,95964.75
2024-03-01T09:33:53.149Z,95972.13
2024-03-01T09:36:20.804Z,95973.56
2024-03-01T09:38:53.858Z,95988.72
2024-03-01T09:41:39.356Z,95989.38
2024-03-01T09:44:12.129Z,95990.31
2024-03-01T09:46:51.713Z,95992.59
2024-03-01T09:49:30.516Z,95989.56
2024-03-01T09:52:19.492Z,95999.66
2024-03-01T09:55:07.601Z,96000.72
2024-03-01T09:57:41.548Z,95996.63
2024-03-01T10:00:34.621Z,96000.22
2024-03-01T10:03:29.337Z,96000.91
2024-03-01T10:06:17.502Z,96003.09
2024-03-01T10:09:14.227Z,95998.94
2024-03-01T10:12:08.734Z,96013.69
2024-03-01T10:14:59.585Z,96019.31
2024-03-01T10:17:57.402Z,96017.78
2024-03-01T10:20:38.413Z,96010.66
2024-03-01T10:23:30.014Z,96015.47
2024-03-01T10:26:04.735Z,96017.50
2024-03-01T10:28:43.712Z,96026.59
2024-03-01T10:31:22.653Z,96023.31
2024-03-01T10:34:11.943Z,96017.66
2024-03-01T10:36:47.058Z,95997.81
2024-03-01T10:39:18.558Z,95999.53
2024-03-01T10:41:53.611Z,96002.03
2024-03-01T10:44:38.598Z,96000.44
2024-03-01T10:47:23.104Z,95993.97
2024-03-01T10:50:13.928Z,95993.97
2024-03-01T10:53:06.361Z,95993.69
2024-03-01T10:55:38.939Z,95987.47
2024-03-01T10:58:14.363Z,95996.06
2024-03-01T11:00:57.990Z,95993.97
2024-03-01T11:03:47.876Z,95990.31
2024-03-01T11:06:23.398Z,95982.06
2024-03-01T11:08:58.229Z,95977.25
2024-03-01T11:11:33.803Z,95985.25
2024-03-01T11:14:05.084Z,95985.41
2024-03-01T11:16:35.281Z,95984.09
2024-03-01T11:19:07.469Z,95975.25
2024-03-01T11:21:38.332Z,95979.19
2024-03-01T11:24:11.362Z,95988.50
2024-03-01T11:26:45.137Z,95986.50
2024-03-01T11:29:23.785Z,95979.78
2024-03-01T11:31:57.844Z,95978.00
2024-03-01T11:34:36.317Z,95973.38
2024-03-01T11:37:18.979Z,95983.63
2024-03-01T11:39:57.921Z,95986.59
2024-03-01T11:42:34.734Z,95990.06
2024-03-01T11:45:01.578Z,95989.84
2024-03-01T11:47:37.448Z,95982.44
2024-03-01T11:50:32.095Z,95978.00
2024-03-01T11:53:12.345Z,95985.16
2024-03-01T11:55:54.093Z,95986.25
2024-03-01T11:58:41.818Z,95982.53
2024-03-01T12:01:36.419Z,95974.56
2024-03-01T12:04:25.310Z,95965.91
2024-03-01T12:07:01.133Z,95972.50
2024-03-01T12:09:45.466Z,95979.59
2024-03-01T12:12:26.625Z,95967.97
2024-03-01T12:14:59.266Z,95964.75
2024-03-01T12:17:53.576Z,95964.19
2024-03-01T12:20:21.201Z,95970.41
2024-03-01T12:22:54.079Z,95976.66
2024-03-01T12:25:25.194Z,95958.59
2024-03-01T12:28:10.196Z,95951.53
2024-03-01T12:30:43.583Z,95947.09
2024-03-01T12:33:32.827Z,95951.09
2024-03-01T12:36:36.549Z,95955.13
2024-03-01T12:39:13.994Z,95943.41
2024-03-01T12:42:02.918Z,95937.72
2024-03-01T12:44:50.542Z,95947.22
2024-03-01T12:47:38.341Z,95953.78
2024-03-01T12:50:46.769Z,95945.63
2024-03-01T12:53:26.641Z,95946.78
2024-03-01T12:56:13.641Z,95941.91
2024-03-01T12:59:01.568Z,95936.44
2024-03-01T13:01:35.630Z,95940.13
2024-03-01T13:04:34.319Z,95936.00
2024-03-01T13:07:02.063Z,95934.91
2024-03-01T13:09:32.205Z,95931.50
2024-03-01T13:12:02.418Z,95933.69
2024-03-01T13:15:05.193Z,95942.25
2024-03-01T13:18:09.405Z,95941.50
2024-03-01T13:20:46.422Z,95928.72
2024-03-01T13:23:40.906Z,95936.56
2024-03-01T13:26:11.350Z,95937.81
2024-03-01T13:28:49.040Z,95925.19
2024-03-01T13:31:23.846Z,95930.47
2024-03-01T13:33:54.614Z,95930.47
2024-03-01T13:36:27.380Z,95928.81
2024-03-01T13:39:26.815Z,95916.78
2024-03-01T13:42:33.505Z,95923.84
2024-03-01T13:45:13.230Z,95923.75
2024-03-01T13:47:45.912Z,95914.31
2024-03-01T13:50:18.581Z,95917.44
2024-03-01T13:52:46.470Z,95918.97
2024-03-01T13:55:14.690Z,95915.22
2024-03-01T13:57:42.773Z,95910.94
2024-03-01T14:00:26.416Z,95909.88
2024-03-01T14:02:54.418Z,95905.84
2024-03-01T14:05:29.623Z,95901.03
2024-03-01T14:08:02.393Z,95901.03
2024-03-01T14:10:29.643Z,95905.94
2024-03-01T14:12:57.300Z,95904.09
2024-03-01T14:15:24.056Z,95898.16
2024-03-01T14:17:53.856Z,95909.63
2024-03-01T14:20:21.223Z,95904.63
2024-03-01T14:22:52.886Z,95911.47
2024-03-01T14:25:20.418Z,95901.59
2024-03-01T14:27:50.051Z,95902.56
2024-03-01T14:30:17.639Z,95894.09
2024-03-01T14:32:45.641Z,95898.00
2024-03-01T14:35:24.512Z,95898.50
2024-03-01T14:37:52.730Z,95902.41
2024-03-01T14:40:20.221Z,95886.38
2024-03-01T14:42:59.738Z,95893.63
2024-03-01T14:45:38.611Z,95898.44
2024-03-01T14:48:08.057Z,95900.72
2024-03-01T14:50:34.813Z,95890.53
2024-03-01T14:53:02.834Z,95884.72
2024-03-01T14:55:29.918Z,95892.94
2024-03-01T14:57:56.638Z,95880.06
2024-03-01T15:00:26.486Z,95886.09
2024-03-01T15:02:53.445Z,95885.00
2024-03-01T15:05:21.251Z,95886.75
2024-03-01T15:07:47.993Z,95882.56
2024-03-01T15:10:21.142Z,95885.66
2024-03-01T15:12:57.831Z,95875.66
2024-03-01T15:15:27.957Z,95869.13
2024-03-01T15:18:08.812Z,95874.81
2024-03-01T15:20:43.187Z,95869.63
2024-03-01T15:23:13.926Z,95866.03
2024-03-01T15:25:41.348Z,95875.16
2024-03-01T15:28:10.407Z,95869.00
2024-03-01T15:30:38.779Z,95865.41
2024-03-01T15:33:06.078Z,95853.44
2024-03-01T15:35:36.439Z,95855.25
2024-03-01T15:38:05.948Z,95852.53
2024-03-01T15:40:38.294Z,95845.81
2024-03-01T15:43:07.033Z,95841.31
2024-03-01T15:45:34.385Z,95835.78
2024-03-01T15:48:01.227Z,95842.66
2024-03-01T15:50:29.369Z,95856.44
2024-03-01T15:52:56.544Z,95848.16
2024-03-01T15:55:23.431Z,95847.16
2024-03-01T15:57:50.437Z,95845.41
2024-03-01T16:00:20.190Z,95842.50
2024-03-01T16:02:47.849Z,95834.91
2024-03-01T16:05:16.909Z,95847.19
2024-03-01T16:07:49.133Z,95846.84
2024-03-01T16:10:25.595Z,95852.91
2024-03-01T16:12:57.660Z,95855.34
2024-03-01T16:15:26.025Z,95844.75
2024-03-01T16:17:55.385Z,95831.25
2024-03-01T16:20:23.478Z,95834.38
2024-03-01T16:22:51.013Z,95837.94
2024-03-01T16:25:17.934Z,95844.53
2024-03-01T16:27:44.774Z,95845.25
2024-03-01T16:30:17.051Z,95846.31
2024-03-01T16:32:44.452Z,95856.81
2024-03-01T16:35:53.575Z,95855.19
2024-03-01T16:38:20.249Z,95857.41
2024-03-01T16:40:47.223Z,95858.63
2024-03-01T16:43:35.722Z,95855.88
2024-03-01T16:46:03.101Z,95855.31
2024-03-01T16:48:54.129Z,95859.13
2024-03-01T16:51:41.765Z,95859.13
2024-03-01T16:54:35.016Z,95854.00
2024-03-01T16:57:10.174Z,95852.09
2024-03-01T16:59:38.624Z,95853.66
2024-03-01T17:02:21.924Z,95858.78
2024-03-01T17:04:49.027Z,95843.03
2024-03-01T17:07:36.399Z,95853.03
2024-03-01T17:10:03.735Z,95843.75
2024-03-01T17:12:30.429Z,95848.50
2024-03-01T17:14:57.252Z,95846.72
2024-03-01T17:17:23.799Z,95846.94
2024-03-01T17:19:50.635Z,95836.91
2024-03-01T17:22:18.279Z,95834.53
2024-03-01T17:24:47.421Z,95830.09
2024-03-01T17:27:14.305Z,95823.66
2024-03-01T17:29:40.991Z,95827.34
2024-03-01T17:32:07.721Z,95826.03
2024-03-01T17:34:34.407Z,95823.75
2024-03-01T17:37:01.113Z,95829.38
2024-03-01T17:39:27.991Z,95832.25
2024-03-01T17:41:54.787Z,95829.25
2024-03-01T17:44:21.386Z,95837.00
2024-03-01T17:46:48.490Z,95838.88
2024-03-01T17:49:15.565Z,95828.56
2024-03-01T17:51:42.484Z,95827.84
2024-03-01T17:54:09.241Z,95832.13
2024-03-01T17:56:35.923Z,95828.75
2024-03-01T17:59:02.513Z,95835.78
2024-03-01T18:01:29.335Z,95841.50
2024-03-01T18:03:56.022Z,95835.84
2024-03-01T18:06:22.681Z,95837.59
2024-03-01T18:08:50.696Z,95840.22
2024-03-01T18:11:17.589Z,95836.69
2024-03-01T18:13:44.525Z,95830.13
2024-03-01T18:16:14.218Z,95836.69
2024-03-01T18:18:41.606Z,95834.91
2024-03-01T18:21:08.353Z,95834.41
2024-03-01T18:23:35.050Z,95834.91
2024-03-01T18:26:01.718Z,95829.28
2024-03-01T18:28:28.457Z,95821.53
2024-03-01T18:30:55.134Z,95817.34
2024-03-01T18:33:21.830Z,95821.66
2024-03-01T18:35:48.436Z,95811.81
2024-03-01T18:38:15.090Z,95800.38
2024-03-01T18:40:41.835Z,95799.66
2024-03-01T18:43:08.952Z,95801.09
2024-03-01T18:45:35.830Z,95798.03
2024-03-01T18:48:03.050Z,95798.47
2024-03-01T18:50:29.686Z,95792.56
2024-03-01T18:52:58.352Z,95795.69
2024-03-01T18:55:25.595Z,95793.41
2024-03-01T18:57:53.026Z,95796.84
2024-03-01T19:00:21.995Z,95798.88
2024-03-01T19:02:49.149Z,95802.81
2024-03-01T19:05:15.941Z,95793.00
2024-03-01T19:07:42.811Z,95795.63
2024-03-01T19:10:10.950Z,95797.88
2024-03-01T19:12:38.505Z,95812.13
2024-03-01T19:15:10.171Z,95803.72
2024-03-01T19:17:39.304Z,95810.34
2024-03-01T19:20:07.794Z,95803.44
2024-03-01T19:22:35.111Z,95810.06
2024-03-01T19:25:02.474Z,95806.88
2024-03-01T19:27:29.441Z,95812.63
2024-03-01T19:29:56.984Z,95810.13
2024-03-01T19:32:24.146Z,95803.81
2024-03-01T19:34:50.855Z,95805.72
2024-03-01T19:37:18.029Z,95806.66
2024-03-01T19:39:45.495Z,95799.94
2024-03-01T19:42:13.406Z,95801.44
2024-03-01T19:44:40.062Z,95803.38
2024-03-01T19:47:06.729Z,95802.44
2024-03-01T19:49:33.394Z,95803.16
2024-03-01T19:52:00.064Z,95802.31
2024-03-01T19:54:26.719Z,95803.38
2024-03-01T19:56:54.453Z,95806.94
2024-03-01T19:59:23.128Z,95808.16
2024-03-01T20:01:53.399Z,95794.75
2024-03-01T20:04:20.170Z,95799.44
2024-03-01T20:06:47.167Z,95798.25
2024-03-01T20:09:17.956Z,95800.53
2024-03-01T20:11:50.379Z,95795.31
2024-03-01T20:14:18.450Z,95787.06
2024-03-01T20:16:45.101Z,95794.69
2024-03-01T20:19:13.193Z,95794.34
2024-03-01T20:21:39.858Z,95792.72
2024-03-01T20:24:08.038Z,95788.56
2024-03-01T20:26:34.843Z,95790.31
2024-03-01T20:29:01.509Z,95782.50
2024-03-01T20:31:28.208Z,95791.75
2024-03-01T20:33:55.181Z,95784.84
2024-03-01T20:36:22.179Z,95789.00
2024-03-01T20:38:48.822Z,95786.50
2024-03-01T20:41:15.627Z,95788.44
2024-03-01T20:43:42.310Z,95787.41
2024-03-01T20:46:10.190Z,95786.22
2024-03-01T20:48:38.290Z,95790.31
2024-03-01T20:51:04.967Z,95785.63
2024-03-01T20:53:33.967Z,95785.34
2024-03-01T20:56:02.072Z,95785.00
2024-03-01T20:58:28.808Z,95786.06
2024-03-01T21:00:55.487Z,95782.19
2024-03-01T21:03:22.131Z,95768.84
2024-03-01T21:05:48.731Z,95772.06
2024-03-01T21:08:15.443Z,95762.34
2024-03-01T21:10:42.073Z,95769.44
2024-03-01T21:13:08.798Z,95768.13
2024-03-01T21:15:35.409Z,95765.16
2024-03-01T21:18:02.096Z,95755.63
2024-03-01T21:20:29.458Z,95761.81
2024-03-01T21:22:56.077Z,95761.59
2024-03-01T21:25:25.224Z,95763.50
2024-03-01T21:27:54.220Z,95757.78
2024-03-01T21:30:21.729Z,95763.09
2024-03-01T21:32:49.092Z,95764.44
2024-03-01T21:35:15.930Z,95758.66
2024-03-01T21:37:43.087Z,95759.72
2024-03-01T21:40:18.206Z,95761.00
2024-03-01T21:42:44.860Z,95758.38
2024-03-01T21:45:11.593Z,95752.34
2024-03-01T21:47:38.251Z,95751.38
2024-03-01T21:50:05.582Z,95752.34
2024-03-01T21:52:32.193Z,95751.50
2024-03-01T21:54:59.027Z,95750.91
2024-03-01T21:57:25.814Z,95751.88
2024-03-01T21:59:53.053Z,95755.41
2024-03-01T22:02:20.007Z,95756.81
2024-03-01T22:04:47.268Z,95752.44
2024-03-01T22:07:14.398Z,95749.06
2024-03-01T22:09:41.380Z,95748.03
2024-03-01T22:12:08.433Z,95752.25
2024-03-01T22:14:35.181Z,95756.56
2024-03-01T22:17:02.382Z,95749.66
2024-03-01T22:19:29.089Z,95755.38
2024-03-01T22:21:56.229Z,95748.34
2024-03-01T22:24:23.049Z,95747.41
2024-03-01T22:26:50.143Z,95750.09
2024-03-01T22:29:16.797Z,95751.03
2024-03-01T22:31:44.632Z,95744.75
2024-03-01T22:34:11.747Z,95748.91
2024-03-01T22:36:38.962Z,95744.84
2024-03-01T22:39:05.816Z,95738.22
2024-03-01T22:41:32.613Z,95739.06
2024-03-01T22:43:59.243Z,95733.66
2024-03-01T22:46:26.349Z,95730.94
2024-03-01T22:48:52.981Z,95736.28
2024-03-01T22:51:20.054Z,95738.28
2024-03-01T22:53:48.042Z,95742.94
2024-03-01T22:56:19.619Z,95741.06
2024-03-01T22:58:49.277Z,95742.00
2024-03-01T23:01:28.156Z,95739.25
2024-03-01T23:03:57.335Z,95737.72
2024-03-01T23:06:27.479Z,95734.38
2024-03-01T23:08:58.691Z,95740.84
2024-03-01T23:11:36.738Z,95737.59
2024-03-01T23:14:06.630Z,95734.03
2024-03-01T23:16:33.424Z,95740.56
2024-03-01T23:19:00.456Z,95729.25
2024-03-01T23:21:28.220Z,95729.03
2024-03-01T23:23:58.609Z,95720.22
2024-03-01T23:26:25.351Z,95720.78
2024-03-01T23:28:52.088Z,95714.25
2024-03-01T23:31:18.802Z,95717.22
2024-03-01T23:33:47.290Z,95713.88
2024-03-01T23:36:14.772Z,95716.63
2024-03-01T23:38:41.399Z,95712.22
2024-03-01T23:41:10.000Z,95710.19
2024-03-01T23:43:36.697Z,95714.25
2024-03-01T23:46:03.508Z,95711.66
2024-03-01T23:48:30.137Z,95710.59
2024-03-01T23:50:59.619Z,95709.59
2024-03-01T23:53:26.823Z,95707.69
2024-03-01T23:55:54.771Z,95708.66
2024-03-01T23:58:21.923Z,95705.09
